Time;durP1;ratioP1;P1;durP2;ratioP2;P2;SDS_P1;SDS_P2;PMS_P1;PMS_P2;Temp;Humidity;BMP_temperature;BMP_pressure;BME280_temperature;BME280_humidity;BME280_pressure;Samples;Min_cycle;Max_cycle;Signal;HPM_P1;HPM_P2
2023/06/09 00:01:47;;;;;;;;;37.75;34.25;;;;;22.21;54.59;100142.28;5053537;28;45416;-66
2023/06/09 00:04:15;;;;;;;;;28.25;28.25;;;;;22.17;54.63;100141.72;5053573;28;45453;-67
2023/06/09 00:06:41;;;;;;;;;36.25;31.75;;;;;22.13;54.97;100145.69;5053773;28;45502;-66
2023/06/09 00:09:06;;;;;;;;;31.25;30.25;;;;;22.08;54.86;100142.59;5054650;28;45590;-67
2023/06/09 00:11:32;;;;;;;;;26.75;26.75;;;;;22.08;54.88;100130.06;5054300;28;46048;-69
2023/06/09 00:13:59;;;;;;;;;26.50;26.50;;;;;22.05;55.12;100130.38;5055114;28;45345;-68
2023/06/09 00:16:24;;;;;;;;;28.00;28.00;;;;;22.01;55.43;100123.63;5055055;28;45324;-66
2023/06/09 00:18:51;;;;;;;;;28.25;28.25;;;;;21.97;55.56;100125.72;5055270;28;45388;-67
2023/06/09 00:21:18;;;;;;;;;28.00;28.00;;;;;21.90;55.78;100124.63;5054365;28;46232;-69
2023/06/09 00:23:47;;;;;;;;;26.75;26.75;;;;;21.85;55.87;100127.78;5053939;28;45418;-68
2023/06/09 00:26:13;;;;;;;;;30.25;29.50;;;;;21.82;56.21;100120.03;5048572;28;45280;-65
2023/06/09 00:28:40;;;;;;;;;30.75;30.00;;;;;21.79;56.09;100117.66;5052567;28;45494;-66
2023/06/09 00:31:05;;;;;;;;;25.00;25.00;;;;;21.77;56.56;100121.44;5052925;28;46622;-66
2023/06/09 00:33:31;;;;;;;;;26.25;26.25;;;;;21.68;56.48;100121.34;5048929;28;45180;-67
2023/06/09 00:35:56;;;;;;;;;30.50;28.50;;;;;21.70;56.33;100121.16;5064272;28;45367;-65
2023/06/09 00:38:22;;;;;;;;;36.75;32.75;;;;;21.68;56.63;100121.34;5041248;28;46167;-66
2023/06/09 00:40:49;;;;;;;;;32.50;30.25;;;;;21.66;57.07;100111.75;5048190;28;47029;-65
2023/06/09 00:43:15;;;;;;;;;28.25;27.75;;;;;21.64;57.22;100109.22;5049123;28;45393;-67
2023/06/09 00:45:40;;;;;;;;;26.50;26.50;;;;;21.60;57.27;100113.16;5033960;28;45729;-66
2023/06/09 00:48:06;;;;;;;;;30.00;29.25;;;;;21.57;57.06;100105.41;5043461;28;45537;-65
2023/06/09 00:50:31;;;;;;;;;30.00;29.25;;;;;21.55;57.32;100099.38;5051257;28;48681;-66
2023/06/09 00:52:59;;;;;;;;;24.25;24.25;;;;;21.53;57.30;100101.34;5038735;28;45470;-65
2023/06/09 00:55:26;;;;;;;;;31.25;30.00;;;;;21.53;57.39;100102.19;5034768;28;45518;-65
2023/06/09 00:57:58;;;;;;;;;27.00;27.00;;;;;21.52;57.55;100095.13;5050616;28;45503;-69
2023/06/09 01:00:27;;;;;;;;;29.50;29.50;;;;;21.51;57.79;100103.31;5039829;28;46679;-65
2023/06/09 01:03:02;;;;;;;;;27.75;27.75;;;;;21.47;58.00;100094.72;5043838;28;45276;-67
2023/06/09 01:05:32;;;;;;;;;27.50;27.50;;;;;21.45;58.30;100094.88;5046209;28;45443;-68
2023/06/09 01:08:05;;;;;;;;;27.25;27.25;;;;;21.36;58.51;100089.53;5053151;28;45612;-67
2023/06/09 01:10:42;;;;;;;;;31.25;30.25;;;;;21.33;58.47;100090.69;5064145;27;46119;-66
2023/06/09 01:13:29;;;;;;;;;27.00;27.00;;;;;21.29;58.67;100089.28;5052882;28;45289;-68
2023/06/09 01:16:04;;;;;;;;;28.25;28.25;;;;;21.26;59.57;100086.91;5054494;28;45319;-68
2023/06/09 01:18:32;;;;;;;;;30.50;29.75;;;;;21.19;59.63;100080.41;5055242;28;45390;-66
2023/06/09 01:21:08;;;;;;;;;28.50;27.50;;;;;21.16;60.01;100078.88;5054446;28;46536;-66
2023/06/09 01:23:51;;;;;;;;;27.00;27.00;;;;;21.10;60.06;100080.28;5057869;28;45337;-64
2023/06/09 01:26:18;;;;;;;;;26.50;26.50;;;;;20.90;59.97;100043.88;5066172;28;45395;-72
2023/06/09 01:28:46;;;;;;;;;23.75;23.75;;;;;20.98;60.16;100068.91;5078123;27;45228;-66
2023/06/09 01:31:15;;;;;;;;;28.50;28.50;;;;;20.97;60.62;100077.94;5077776;27;45393;-67
2023/06/09 01:33:42;;;;;;;;;26.75;26.75;;;;;20.89;60.84;100067.09;5077654;27;45537;-66
2023/06/09 01:36:08;;;;;;;;;30.75;30.25;;;;;20.86;60.67;100070.88;5061117;28;45374;-70
2023/06/09 01:38:34;;;;;;;;;29.75;28.75;;;;;20.85;61.13;100060.34;5048253;28;45276;-70
2023/06/09 01:40:59;;;;;;;;;31.25;30.00;;;;;20.81;61.86;100064.28;5072175;27;46470;-66
2023/06/09 01:43:25;;;;;;;;;31.75;30.00;;;;;20.75;61.25;100052.28;5054507;28;45534;-66
2023/06/09 01:45:51;;;;;;;;;27.50;27.50;;;;;20.75;61.40;100068.31;5045150;28;45417;-69
2023/06/09 01:48:41;;;;;;;;;27.25;27.25;;;;;20.73;61.37;100071.16;5051768;28;45593;-68
2023/06/09 01:51:18;;;;;;;;;29.00;29.00;;;;;20.70;61.75;100059.88;5052616;28;45487;-66
2023/06/09 01:53:51;;;;;;;;;26.50;26.50;;;;;20.64;62.53;100060.44;5056191;28;45402;-65
2023/06/09 01:56:40;;;;;;;;;36.00;32.25;;;;;20.60;62.09;100057.19;5056562;28;45349;-66
2023/06/09 01:59:11;;;;;;;;;30.25;29.50;;;;;20.57;62.36;100060.16;5040796;28;45443;-69
2023/06/09 02:01:38;;;;;;;;;31.00;30.25;;;;;20.54;62.19;100058.63;5035273;28;47254;-69
2023/06/09 02:04:05;;;;;;;;;32.00;31.25;;;;;20.49;62.19;100060.88;5037685;28;45464;-69
2023/06/09 02:06:33;;;;;;;;;27.00;27.00;;;;;20.50;62.66;100056.34;5053134;28;45539;-67
2023/06/09 02:09:00;;;;;;;;;27.25;27.25;;;;;20.47;63.01;100061.97;5056423;28;45585;-67
2023/06/09 02:11:26;;;;;;;;;30.75;30.00;;;;;20.37;63.25;100056.63;5056067;28;45501;-67
2023/06/09 02:13:53;;;;;;;;;24.25;24.25;;;;;20.36;62.82;100054.94;5056253;28;45730;-68
2023/06/09 02:16:18;;;;;;;;;28.00;28.00;;;;;20.33;62.88;100049.88;5056471;28;45318;-69
2023/06/09 02:18:44;;;;;;;;;30.75;29.75;;;;;20.32;62.94;100056.19;5048853;28;46475;-68
2023/06/09 02:21:10;;;;;;;;;25.50;25.50;;;;;20.26;63.44;100055.78;5052176;28;46158;-67
2023/06/09 02:23:37;;;;;;;;;24.25;24.25;;;;;20.25;63.38;100053.22;5055282;28;45353;-70
2023/06/09 02:26:03;;;;;;;;;25.50;25.50;;;;;20.22;63.55;100058.84;5055629;28;45507;-68
2023/06/09 02:28:28;;;;;;;;;28.50;28.50;;;;;20.21;63.48;100057.16;5056389;28;46135;-67
2023/06/09 02:30:53;;;;;;;;;28.75;28.75;;;;;20.13;63.90;100040.00;5056559;28;45469;-67
2023/06/09 02:33:19;;;;;;;;;26.75;26.50;;;;;20.09;63.63;100030.56;5056138;28;45849;-68
2023/06/09 02:35:45;;;;;;;;;29.00;29.00;;;;;20.12;63.50;100038.31;5056436;28;45252;-67
2023/06/09 02:38:11;;;;;;;;;27.75;27.75;;;;;20.09;63.64;100032.38;5056645;28;45643;-64
2023/06/09 02:40:36;;;;;;;;;27.00;27.00;;;;;20.08;63.84;100033.38;5036698;28;45436;-68
2023/06/09 02:43:01;;;;;;;;;27.50;27.50;;;;;20.04;64.34;100032.81;5036251;28;45545;-65
2023/06/09 02:45:27;;;;;;;;;27.00;27.00;;;;;20.02;64.02;100029.44;5036303;28;45364;-69
2023/06/09 02:47:52;;;;;;;;;27.75;27.75;;;;;20.01;64.08;100027.75;5036424;28;45344;-67
2023/06/09 02:50:18;;;;;;;;;29.50;29.25;;;;;19.99;64.01;100027.88;5036257;28;47222;-68
2023/06/09 02:52:44;;;;;;;;;25.25;25.25;;;;;19.97;64.53;100027.16;5056163;28;45424;-68
2023/06/09 02:55:11;;;;;;;;;29.00;28.75;;;;;19.91;64.27;100024.22;5055558;28;45521;-66
2023/06/09 02:57:36;;;;;;;;;27.75;27.75;;;;;19.93;64.59;100028.41;5057005;28;45508;-69
2023/06/09 03:00:04;;;;;;;;;24.25;24.25;;;;;19.89;64.17;100024.28;5056089;28;45343;-68
2023/06/09 03:02:30;;;;;;;;;26.50;26.50;;;;;19.92;64.53;100031.22;5056139;28;45276;-68
2023/06/09 03:04:56;;;;;;;;;25.25;25.25;;;;;19.89;64.67;100032.31;5054566;28;45794;-68
2023/06/09 03:07:22;;;;;;;;;27.75;27.75;;;;;19.87;64.68;100034.25;5049454;28;45319;-68
2023/06/09 03:09:47;;;;;;;;;25.00;25.00;;;;;19.88;63.88;100037.78;5051515;28;46491;-68
2023/06/09 03:12:13;;;;;;;;;27.00;26.50;;;;;19.84;64.09;100026.53;5053603;28;45390;-67
2023/06/09 03:14:39;;;;;;;;;26.50;26.50;;;;;19.90;64.48;100028.69;5049767;28;45439;-70
2023/06/09 03:17:04;;;;;;;;;28.25;26.00;;;;;19.91;64.07;100034.88;5036279;28;45795;-67
2023/06/09 03:19:30;;;;;;;;;26.00;26.00;;;;;19.90;63.93;100046.53;5044689;28;46075;-66
2023/06/09 03:21:57;;;;;;;;;25.25;25.25;;;;;19.88;64.37;100043.97;5055499;28;45452;-67
2023/06/09 03:24:23;;;;;;;;;25.75;25.75;;;;;19.87;64.32;100044.94;5054751;28;45240;-65
2023/06/09 03:26:48;;;;;;;;;30.50;29.75;;;;;19.85;64.37;100042.41;5054245;28;45616;-67
2023/06/09 03:29:14;;;;;;;;;27.25;27.25;;;;;19.84;64.38;100045.22;5053879;28;46473;-66
2023/06/09 03:31:41;;;;;;;;;28.50;28.25;;;;;19.77;64.64;100036.06;5056087;28;45239;-67
2023/06/09 03:34:07;;;;;;;;;26.25;26.25;;;;;19.78;64.22;100046.63;5053990;28;45477;-66
2023/06/09 03:36:35;;;;;;;;;24.75;23.75;;;;;19.78;64.72;100038.59;5055715;28;45476;-67
2023/06/09 03:39:01;;;;;;;;;26.00;26.00;;;;;19.70;64.93;100041.94;5055139;28;46140;-66
2023/06/09 03:41:26;;;;;;;;;25.00;25.00;;;;;19.64;65.65;100038.97;5055690;28;45866;-66
2023/06/09 03:43:51;;;;;;;;;27.00;27.00;;;;;19.61;65.41;100034.72;5053974;28;60459;-68
2023/06/09 03:46:17;;;;;;;;;28.75;28.00;;;;;19.59;64.94;100034.03;5055471;28;45341;-66
2023/06/09 03:48:42;;;;;;;;;26.75;26.75;;;;;19.59;65.13;100038.50;5055703;28;46151;-66
2023/06/09 03:51:07;;;;;;;;;25.75;25.75;;;;;19.58;65.27;100045.66;5055196;28;45470;-66
2023/06/09 03:53:33;;;;;;;;;29.25;29.25;;;;;19.59;65.34;100042.03;5054776;28;45240;-67
2023/06/09 03:56:01;;;;;;;;;30.75;30.00;;;;;19.61;65.35;100045.41;5053062;28;51867;-67
2023/06/09 03:58:27;;;;;;;;;26.00;26.00;;;;;19.61;64.69;100033.88;5065337;28;47605;-70
2023/06/09 04:00:53;;;;;;;;;27.25;27.25;;;;;19.65;64.82;100038.81;5054215;28;45354;-69
2023/06/09 04:03:20;;;;;;;;;29.75;29.25;;;;;19.67;65.08;100038.72;5047761;28;45323;-69
2023/06/09 04:05:46;;;;;;;;;26.00;26.00;;;;;19.70;64.87;100038.44;5059827;28;45423;-66
2023/06/09 04:08:12;;;;;;;;;27.50;27.50;;;;;19.66;64.33;100035.19;5051301;28;46657;-68
2023/06/09 04:10:38;;;;;;;;;26.75;26.75;;;;;19.74;64.75;100037.19;5044684;28;45338;-65
2023/06/09 04:13:03;;;;;;;;;27.50;27.50;;;;;19.73;64.76;100037.31;5044862;28;45901;-66
2023/06/09 04:15:29;;;;;;;;;27.75;27.25;;;;;19.70;65.38;100033.09;5054962;28;45396;-67
2023/06/09 04:17:54;;;;;;;;;27.50;27.25;;;;;19.62;65.45;100028.41;5052265;28;46305;-70
2023/06/09 04:20:22;;;;;;;;;24.25;24.25;;;;;19.55;66.07;100037.94;5054809;28;45444;-70
2023/06/09 04:22:49;;;;;;;;;28.50;28.50;;;;;19.42;66.82;100035.47;5049008;28;45465;-71
2023/06/09 04:25:15;;;;;;;;;29.00;28.75;;;;;19.34;66.87;100033.50;5053963;28;45332;-72
2023/06/09 04:27:41;;;;;;;;;32.00;31.00;;;;;19.33;67.13;100033.59;5035121;28;47122;-70
2023/06/09 04:30:07;;;;;;;;;42.25;35.75;;;;;19.36;67.38;100042.19;5034619;28;45454;-72
2023/06/09 04:32:33;;;;;;;;;33.75;32.00;;;;;19.32;67.71;100045.25;5047994;28;45373;-71
2023/06/09 04:34:59;;;;;;;;;39.25;35.50;;;;;19.29;67.63;100040.19;5046795;28;45307;-71
2023/06/09 04:37:25;;;;;;;;;33.25;32.00;;;;;19.31;67.85;100044.41;5034627;28;45365;-72
2023/06/09 04:39:51;;;;;;;;;32.75;31.75;;;;;19.31;67.95;100044.41;5044034;28;45440;-69
2023/06/09 04:42:19;;;;;;;;;36.25;34.00;;;;;19.31;67.61;100038.22;5045657;28;45250;-70
2023/06/09 04:44:47;;;;;;;;;34.50;32.75;;;;;19.30;67.88;100045.41;5052284;28;45481;-68
2023/06/09 04:47:20;;;;;;;;;33.25;31.00;;;;;19.33;67.33;100039.81;5039495;28;45389;-69
2023/06/09 04:49:49;;;;;;;;;31.25;30.50;;;;;19.31;67.87;100052.41;5052373;28;45334;-71
2023/06/09 04:52:17;;;;;;;;;29.50;29.25;;;;;19.27;67.56;100046.50;5052747;28;45548;-71
2023/06/09 04:54:44;;;;;;;;;31.50;30.75;;;;;19.29;67.99;100050.84;5039390;28;45386;-70
2023/06/09 04:57:10;;;;;;;;;27.00;27.00;;;;;19.37;68.31;100041.22;5048435;28;47150;-72
2023/06/09 04:59:37;;;;;;;;;30.75;29.75;;;;;19.47;67.22;100038.59;5032973;28;45354;-72
2023/06/09 05:02:03;;;;;;;;;38.75;34.25;;;;;19.59;67.03;100044.69;5053239;28;45378;-74
2023/06/09 05:04:28;;;;;;;;;30.00;29.75;;;;;19.80;66.39;100059.81;5054457;28;45165;-76
2023/06/09 05:06:55;;;;;;;;;26.75;26.75;;;;;19.91;65.65;100056.22;5051889;28;48188;-71
2023/06/09 05:09:20;;;;;;;;;24.50;24.50;;;;;20.04;65.04;100042.63;5054277;28;45333;-72
2023/06/09 05:11:46;;;;;;;;;32.50;31.00;;;;;20.15;64.18;100037.19;5045601;28;45410;-73
2023/06/09 05:14:11;;;;;;;;;32.50;31.00;;;;;20.36;63.83;100052.28;5048988;28;45273;-74
2023/06/09 05:16:37;;;;;;;;;28.00;28.00;;;;;20.53;63.09;100053.41;5037641;28;46331;-74
2023/06/09 05:19:02;;;;;;;;;27.50;26.75;;;;;20.66;62.42;100051.28;5056118;28;46869;-72
2023/06/09 05:21:28;;;;;;;;;22.50;22.50;;;;;20.71;61.68;100037.53;5055106;28;45425;-72
2023/06/09 05:23:53;;;;;;;;;27.25;27.25;;;;;20.89;61.84;100050.19;5040323;28;45517;-64
2023/06/09 05:26:20;;;;;;;;;25.25;25.25;;;;;21.07;61.04;100051.16;5041457;28;46485;-67
2023/06/09 05:28:48;;;;;;;;;27.50;27.50;;;;;21.23;60.41;100053.25;5053570;28;45444;-66
2023/06/09 05:31:15;;;;;;;;;30.25;29.75;;;;;21.38;59.61;100058.16;5051176;28;46974;-66
2023/06/09 05:33:42;;;;;;;;;27.50;27.50;;;;;21.48;59.13;100060.81;5054259;28;45558;-67
2023/06/09 05:36:08;;;;;;;;;28.75;28.25;;;;;21.61;59.15;100053.28;5040661;28;46309;-68
2023/06/09 05:38:34;;;;;;;;;27.25;26.75;;;;;21.71;58.87;100051.44;5034075;28;45567;-71
2023/06/09 05:40:59;;;;;;;;;31.00;29.75;;;;;21.82;58.20;100057.59;5049445;28;45331;-66
2023/06/09 05:43:29;;;;;;;;;32.75;30.75;;;;;21.94;58.04;100066.28;5033862;28;45327;-65
2023/06/09 05:45:55;;;;;;;;;27.25;27.25;;;;;22.06;57.50;100069.59;5042110;28;45520;-64
2023/06/09 05:48:20;;;;;;;;;28.75;28.50;;;;;22.14;56.79;100083.09;5052685;28;45314;-66
2023/06/09 05:50:46;;;;;;;;;27.25;27.25;;;;;22.22;57.08;100080.50;5054054;28;45858;-67
2023/06/09 05:53:11;;;;;;;;;27.25;27.25;;;;;22.30;56.16;100082.44;5051995;28;45498;-66
2023/06/09 05:55:38;;;;;;;;;29.75;29.00;;;;;22.32;55.75;100070.59;5050772;28;46290;-65
2023/06/09 05:58:03;;;;;;;;;23.00;23.00;;;;;22.42;55.57;100072.38;5049887;28;46325;-67
2023/06/09 06:00:33;;;;;;;;;26.00;26.00;;;;;22.46;55.58;100081.81;5048644;28;45427;-65
2023/06/09 06:03:02;;;;;;;;;28.25;27.75;;;;;22.46;55.34;100081.81;5034118;28;45229;-67
2023/06/09 06:05:28;;;;;;;;;25.00;25.00;;;;;22.46;55.13;100084.50;5031746;28;47224;-67
2023/06/09 06:07:53;;;;;;;;;26.50;26.00;;;;;22.43;55.10;100085.59;5049521;28;45690;-66
2023/06/09 06:10:18;;;;;;;;;32.50;31.00;;;;;22.42;55.29;100091.94;5055111;28;54751;-66
2023/06/09 06:12:44;;;;;;;;;26.25;26.25;;;;;22.41;55.25;100082.22;5049662;28;52394;-65
2023/06/09 06:15:09;;;;;;;;;26.50;26.50;;;;;22.35;55.02;100090.03;5038123;28;45503;-65
2023/06/09 06:17:35;;;;;;;;;27.75;27.75;;;;;22.26;54.99;100087.25;5041560;28;45450;-65
2023/06/09 06:20:00;;;;;;;;;29.25;28.50;;;;;22.21;55.29;100078.81;5044265;28;45431;-63
2023/06/09 06:22:26;;;;;;;;;31.00;30.00;;;;;22.13;55.63;100081.41;5054386;28;45719;-64
2023/06/09 06:24:51;;;;;;;;;26.75;26.75;;;;;22.12;55.37;100082.38;5048160;28;46097;-66
2023/06/09 06:27:16;;;;;;;;;28.25;28.25;;;;;22.08;55.33;100071.16;5041618;28;45417;-63
2023/06/09 06:29:42;;;;;;;;;26.50;26.50;;;;;22.06;55.64;100078.50;5040620;28;45449;-64
2023/06/09 06:32:08;;;;;;;;;27.75;27.75;;;;;22.07;55.60;100079.31;5054647;28;45626;-68
2023/06/09 06:34:33;;;;;;;;;28.50;28.25;;;;;22.11;55.86;100081.56;5054586;28;45410;-66
2023/06/09 06:36:58;;;;;;;;;29.50;29.50;;;;;22.12;55.23;100082.38;5055463;28;45405;-67
2023/06/09 06:39:24;;;;;;;;;27.25;27.25;;;;;22.08;55.53;100072.97;5055207;28;45406;-65
2023/06/09 06:41:49;;;;;;;;;26.25;26.25;;;;;22.07;55.48;100077.50;5055897;28;45350;-64
2023/06/09 06:44:14;;;;;;;;;28.25;28.25;;;;;22.08;55.54;100072.97;5054777;28;48826;-69
2023/06/09 06:46:40;;;;;;;;;29.50;29.25;;;;;22.10;55.45;100076.34;5055133;28;45521;-66
2023/06/09 06:49:06;;;;;;;;;28.00;27.25;;;;;22.14;55.27;100085.75;5056131;28;45402;-66
2023/06/09 06:51:31;;;;;;;;;24.00;24.00;;;;;22.13;55.76;100087.63;5056240;28;45301;-64
2023/06/09 06:53:56;;;;;;;;;27.75;27.25;;;;;22.17;55.50;100080.97;5055808;28;45999;-64
2023/06/09 06:56:22;;;;;;;;;26.00;26.00;;;;;22.21;55.04;100080.66;5056353;28;45555;-65
2023/06/09 06:58:47;;;;;;;;;30.00;29.00;;;;;22.28;54.92;100081.75;5054338;28;45631;-65
2023/06/09 07:01:17;;;;;;;;;30.00;29.25;;;;;22.33;55.08;100083.00;5056271;28;45360;-66
2023/06/09 07:03:42;;;;;;;;;26.50;26.50;;;;;22.39;54.52;100084.22;5071472;28;46902;-64
2023/06/09 07:06:09;;;;;;;;;27.75;27.25;;;;;22.43;54.76;100080.25;5055809;28;45278;-67
2023/06/09 07:08:34;;;;;;;;;20.75;20.75;;;;;22.52;54.30;100080.34;5056378;28;45276;-67
2023/06/09 07:11:00;;;;;;;;;22.75;22.75;;;;;22.48;53.22;100069.09;5054647;28;45522;-67
2023/06/09 07:13:25;;;;;;;;;24.25;24.25;;;;;22.65;53.41;100085.34;5054134;28;46054;-65
2023/06/09 07:15:51;;;;;;;;;22.25;22.25;;;;;22.71;53.02;100076.69;5070667;27;45414;-68
2023/06/09 07:18:16;;;;;;;;;24.75;24.75;;;;;22.79;53.04;100081.28;5054111;28;45366;-66
2023/06/09 07:20:41;;;;;;;;;23.25;23.25;;;;;22.87;53.08;100086.72;5055232;28;45219;-66
2023/06/09 07:23:06;;;;;;;;;23.25;23.25;;;;;22.93;52.34;100091.47;5054896;28;58604;-65
2023/06/09 07:25:32;;;;;;;;;24.00;24.00;;;;;23.00;52.50;100089.00;5053950;28;45530;-65
2023/06/09 07:27:57;;;;;;;;;25.25;25.25;;;;;23.11;52.61;100096.81;5055285;28;45330;-66
2023/06/09 07:30:22;;;;;;;;;22.00;22.00;;;;;23.13;51.66;100100.16;5055658;28;47898;-66
2023/06/09 07:32:48;;;;;;;;;24.00;24.00;;;;;23.19;51.39;100104.09;5055302;28;45407;-65
2023/06/09 07:35:13;;;;;;;;;23.75;23.75;;;;;23.20;51.46;100098.56;5071204;27;45462;-65
2023/06/09 07:37:42;;;;;;;;;24.25;24.25;;;;;23.31;51.48;100105.56;5055165;28;45406;-67
2023/06/09 07:40:09;;;;;;;;;24.75;24.75;;;;;23.37;50.90;100111.28;5055495;28;45343;-68
2023/06/09 07:42:34;;;;;;;;;22.25;22.25;;;;;23.43;51.21;100107.97;5055309;28;46473;-65
2023/06/09 07:44:59;;;;;;;;;25.00;25.00;;;;;23.49;50.82;100101.97;5055636;28;45267;-67
2023/06/09 07:47:25;;;;;;;;;24.00;23.75;;;;;23.53;51.02;100092.59;5054085;28;45376;-65
2023/06/09 07:49:50;;;;;;;;;24.50;24.50;;;;;23.63;50.37;100106.75;5055463;28;45310;-67
2023/06/09 07:52:16;;;;;;;;;28.75;27.00;;;;;23.69;50.90;100101.75;5054882;28;46102;-65
2023/06/09 07:54:41;;;;;;;;;22.75;22.75;;;;;23.75;50.15;100104.66;5055060;28;45248;-66
2023/06/09 07:57:07;;;;;;;;;39.50;32.50;;;;;23.81;50.42;100102.31;5054366;28;56725;-67
2023/06/09 07:59:32;;;;;;;;;21.25;21.25;;;;;23.91;50.12;100103.06;5055308;28;45613;-65
2023/06/09 08:01:57;;;;;;;;;30.50;29.50;;;;;23.97;49.93;100094.34;5053778;28;47869;-65
2023/06/09 08:04:23;;;;;;;;;19.50;19.50;;;;;24.09;49.51;100094.09;5055502;28;45339;-66
2023/06/09 08:06:48;;;;;;;;;23.25;23.25;;;;;24.14;49.53;100091.75;5055446;28;45662;-66
2023/06/09 08:09:14;;;;;;;;;23.00;23.00;;;;;24.19;49.79;100086.72;5055360;28;45529;-65
2023/06/09 08:11:39;;;;;;;;;19.50;19.25;;;;;24.30;49.02;100089.13;5054335;28;46237;-65
2023/06/09 08:14:06;;;;;;;;;27.00;26.75;;;;;24.38;49.52;100093.69;5070108;27;45476;-66
2023/06/09 08:16:32;;;;;;;;;25.50;25.50;;;;;24.46;49.26;100085.63;5055118;28;45528;-66
2023/06/09 08:18:57;;;;;;;;;24.75;24.25;;;;;24.54;48.33;100081.28;5055393;28;45250;-65
2023/06/09 08:21:22;;;;;;;;;19.25;19.25;;;;;24.60;48.34;100084.16;5054856;28;46458;-66
2023/06/09 08:23:48;;;;;;;;;26.50;26.00;;;;;24.65;48.59;100073.75;5054965;28;45439;-63
2023/06/09 08:26:13;;;;;;;;;26.25;26.25;;;;;24.70;47.89;100077.78;5054565;28;45403;-65
2023/06/09 08:28:39;;;;;;;;;17.25;17.00;;;;;24.74;47.78;100066.53;5054994;28;45258;-65
2023/06/09 08:31:06;;;;;;;;;23.25;23.25;;;;;24.87;47.40;100075.97;5054281;28;46185;-64
2023/06/09 08:33:33;;;;;;;;;25.50;25.50;;;;;24.92;48.30;100076.31;5054457;28;45357;-68
2023/06/09 08:36:03;;;;;;;;;22.25;22.25;;;;;25.01;47.95;100069.06;5054891;28;45296;-65
2023/06/09 08:38:32;;;;;;;;;24.50;24.50;;;;;25.11;47.47;100064.34;5053776;28;45442;-65
2023/06/09 08:41:06;;;;;;;;;24.25;24.25;;;;;25.22;47.45;100069.38;5054621;28;45307;-67
2023/06/09 08:43:32;;;;;;;;;23.00;23.00;;;;;25.32;47.39;100071.91;5054468;28;45310;-65
2023/06/09 08:45:59;;;;;;;;;22.75;22.75;;;;;25.41;47.05;100058.44;5054566;28;45337;-64
2023/06/09 08:48:26;;;;;;;;;21.50;21.50;;;;;25.47;46.32;100072.09;5054616;28;45560;-64
2023/06/09 08:50:53;;;;;;;;;23.00;23.00;;;;;25.55;46.71;100067.69;5052915;28;47211;-65
2023/06/09 08:53:19;;;;;;;;;24.00;24.00;;;;;25.64;46.18;100062.09;5054242;28;45389;-67
2023/06/09 08:55:44;;;;;;;;;23.00;23.00;;;;;25.73;46.01;100057.53;5054603;28;45167;-64
2023/06/09 08:58:13;;;;;;;;;23.75;23.75;;;;;25.80;46.27;100061.22;5054599;28;45592;-66
2023/06/09 09:00:39;;;;;;;;;22.00;22.00;;;;;25.86;46.27;100056.13;5054306;28;46359;-66
2023/06/09 09:03:06;;;;;;;;;23.50;23.50;;;;;25.90;45.81;100046.69;5054355;28;45365;-67
2023/06/09 09:05:32;;;;;;;;;22.00;22.00;;;;;25.99;46.06;100058.28;5054167;28;45451;-65
2023/06/09 09:07:57;;;;;;;;;23.00;23.00;;;;;26.02;45.39;100052.53;5054602;28;45330;-66
2023/06/09 09:10:22;;;;;;;;;23.50;23.50;;;;;26.10;45.44;100060.56;5054040;28;46245;-65
2023/06/09 09:12:50;;;;;;;;;23.25;23.25;;;;;26.18;44.80;100062.41;5053953;28;45246;-66
2023/06/09 09:15:15;;;;;;;;;24.00;24.00;;;;;26.23;44.56;100065.41;5054191;28;45258;-68
2023/06/09 09:17:41;;;;;;;;;22.00;22.00;;;;;26.27;44.14;100061.34;5053925;28;45185;-66
2023/06/09 09:20:07;;;;;;;;;21.50;21.50;;;;;26.31;43.69;100057.28;5053764;28;46143;-66
2023/06/09 09:22:43;;;;;;;;;20.25;20.25;;;;;26.42;43.65;100057.88;5052482;28;45382;-64
2023/06/09 09:25:09;;;;;;;;;22.25;22.25;;;;;26.51;43.79;100056.84;5053942;28;45457;-64
2023/06/09 09:27:34;;;;;;;;;24.00;24.00;;;;;26.57;43.38;100055.25;5054334;28;45538;-65
2023/06/09 09:29:59;;;;;;;;;22.75;22.75;;;;;26.67;43.22;100043.22;5054133;28;45438;-65
2023/06/09 09:32:25;;;;;;;;;21.50;21.50;;;;;26.77;43.10;100048.34;5053589;28;46683;-65
2023/06/09 09:34:51;;;;;;;;;25.00;25.00;;;;;26.90;42.64;100042.38;5053463;28;45299;-66
2023/06/09 09:37:16;;;;;;;;;30.50;29.50;;;;;27.05;42.55;100044.28;5053313;28;45378;-65
2023/06/09 09:39:49;;;;;;;;;23.50;23.50;;;;;27.16;41.64;100033.03;5052162;28;47322;-65
2023/06/09 09:42:15;;;;;;;;;22.25;21.50;;;;;27.23;41.45;100030.44;5054200;28;45368;-64
2023/06/09 09:44:43;;;;;;;;;23.25;22.50;;;;;27.26;41.38;100039.00;5057045;28;45412;-65
2023/06/09 09:47:12;;;;;;;;;25.00;25.00;;;;;27.32;41.38;100041.97;5057116;28;45666;-63
2023/06/09 09:49:37;;;;;;;;;24.25;24.25;;;;;27.36;41.16;100045.97;5056738;28;45445;-64
2023/06/09 09:52:06;;;;;;;;;23.50;23.50;;;;;27.45;40.63;100031.38;5057626;28;45431;-66
2023/06/09 09:54:36;;;;;;;;;21.75;21.75;;;;;27.53;39.61;100025.06;5057381;28;45321;-66
2023/06/09 09:57:02;;;;;;;;;23.00;23.00;;;;;27.59;39.60;100039.72;5057502;28;45582;-64
2023/06/09 09:59:27;;;;;;;;;22.50;22.50;;;;;27.63;40.19;100028.31;5056838;28;47716;-65
2023/06/09 10:01:55;;;;;;;;;23.50;22.50;;;;;27.69;40.27;100029.44;5056638;28;45342;-66
2023/06/09 10:04:23;;;;;;;;;31.75;30.00;;;;;27.75;40.14;100019.75;5056752;28;45334;-64
2023/06/09 10:06:53;;;;;;;;;24.00;24.00;;;;;27.81;39.77;100027.94;5056807;28;45284;-65
2023/06/09 10:09:23;;;;;;;;;20.50;20.50;;;;;27.91;39.94;100022.22;5071578;27;47599;-65
2023/06/09 10:11:51;;;;;;;;;24.00;24.00;;;;;28.00;39.99;100023.78;5054568;28;45397;-68
2023/06/09 10:14:17;;;;;;;;;25.25;25.25;;;;;28.05;39.50;100023.22;5056335;28;45437;-64
2023/06/09 10:16:44;;;;;;;;;23.75;23.75;;;;;28.11;38.30;100025.16;5072094;28;45639;-65
2023/06/09 10:19:10;;;;;;;;;21.00;21.00;;;;;28.15;38.56;100020.25;5054625;28;47515;-67
2023/06/09 10:21:36;;;;;;;;;30.75;29.50;;;;;28.25;38.96;100025.34;5056424;28;45825;-65
2023/06/09 10:24:04;;;;;;;;;31.50;29.25;;;;;28.37;37.65;100018.41;5056679;28;45293;-66
2023/06/09 10:26:30;;;;;;;;;22.00;22.00;;;;;28.46;37.42;100013.72;5056701;28;45315;-66
2023/06/09 10:28:55;;;;;;;;;28.75;28.75;;;;;28.50;38.12;100011.44;5056286;28;45424;-66
2023/06/09 10:31:23;;;;;;;;;23.50;23.50;;;;;28.63;38.40;100016.16;5056242;28;45422;-66
2023/06/09 10:33:51;;;;;;;;;22.75;22.75;;;;;28.72;37.84;100020.38;5056077;28;45404;-67
2023/06/09 10:36:16;;;;;;;;;24.00;24.00;;;;;28.78;37.69;100014.22;5056835;28;45768;-67
2023/06/09 10:38:50;;;;;;;;;22.50;22.50;;;;;28.89;37.81;100020.13;5056188;28;46224;-64
2023/06/09 10:41:30;;;;;;;;;42.75;36.75;;;;;28.97;37.28;100018.13;5055800;28;45409;-67
2023/06/09 10:44:09;;;;;;;;;39.25;34.25;;;;;29.05;37.34;100024.44;5056309;28;45161;-65
2023/06/09 10:46:47;;;;;;;;;30.75;29.50;;;;;29.09;37.16;100020.28;5054774;28;45629;-66
2023/06/09 10:49:25;;;;;;;;;28.00;27.75;;;;;29.19;36.44;100019.94;5055777;28;46164;-65
2023/06/09 10:51:50;;;;;;;;;22.25;22.25;;;;;29.28;36.44;100018.75;5055633;28;45308;-67
2023/06/09 10:54:20;;;;;;;;;24.25;24.25;;;;;29.37;36.59;100017.56;5055655;28;45315;-66
2023/06/09 10:56:57;;;;;;;;;23.75;23.75;;;;;29.45;36.96;100019.28;5056162;28;45440;-65
2023/06/09 10:59:26;;;;;;;;;23.00;23.00;;;;;29.50;36.26;100019.53;5055248;28;46520;-65
2023/06/09 11:02:00;;;;;;;;;24.25;24.25;;;;;29.57;36.46;100022.28;5055891;28;45335;-67
2023/06/09 11:04:43;;;;;;;;;23.25;23.25;;;;;29.64;35.66;100025.00;5055894;28;45243;-67
2023/06/09 11:07:22;;;;;;;;;18.75;18.75;;;;;29.69;35.24;100025.22;5055657;28;45429;-65
2023/06/09 11:09:47;;;;;;;;;26.75;25.25;;;;;29.73;35.43;100029.25;5055356;28;45703;-66